Historique des mesures à Cassis (13260), France
Quotidien Résumé Octobre 12, 2018 Unités:  Métrique/US    US   Métrique
« Précédent (Jour)
Suivant (Jour) »
Quotidien Hebdomadaire Mensuel Annuel Période au choix
  Maximum: Minimum: Moyenne:
Température: 32 °F /  TemperatureC °C 64 °F /  17.8 °C 66.4 °F /  19.1 °C
Point de rosée: 32 °F /  DewpointC °C 58.1 °F /  14.5 °C 59.7 °F /  15.4 °C
Humidité: Humidity % 73 % 75 %
Vitesse du vent: WindSpeedKMH mph /  0 km/h - 1.4 mph /  2.3 km/h
Rafales: WindSpeedGustKMH mph /  0 km/h - -
Vent:- - SSE
Pression: 0 in /  PressurehPa hPa 30 in /  1016.2 hPa -
Précipitations: 0 in /  0.0 mm    
Historical Graphs
 
 
Mesures pour : Octobre 12, 2018
Heure Temperature Point de rosée Pression Vent Vitesse du vent Rafales Humidité Pluie (par heure) Conditions
32 °F /  TemperatureC °C 32 °F /  DewpointC °C 0 in /  PressurehPa hPa Calm     Humidity % 0 in /  HourlyPrecipMM mm SoftwareType W/m2
00:10 66.4 °F /  19.1 °C 59.7 °F /  15.4 °C 30 in /  1016.2 hPa ESE 4.0 mph /  6.4 km/h 4.0 mph /  6.4 km/h 79 % 0 in /  0.0 mm open2300-1.11 W/m2
01:10 66 °F /  18.9 °C 59.7 °F /  15.4 °C 30 in /  1016.6 hPa WNW 1.8 mph /  2.9 km/h 5.0 mph /  8 km/h 80 % 0 in /  0.0 mm open2300-1.11 W/m2
02:10 64.9 °F /  18.3 °C 58.6 °F /  14.8 °C 30 in /  1016.9 hPa Calm   1.8 mph /  2.9 km/h 80 % 0 in /  0.0 mm open2300-1.11 W/m2
03:10 64.2 °F /  17.9 °C 58.3 °F /  14.6 °C 30 in /  1017.4 hPa Calm   2.9 mph /  4.7 km/h 81 % 0 in /  0.0 mm open2300-1.11 W/m2
04:10 64.4 °F /  18.0 °C 58.5 °F /  14.7 °C 30 in /  1017.1 hPa Calm   1.4 mph /  2.3 km/h 81 % 0 in /  0.0 mm open2300-1.11 W/m2
05:10 64.4 °F /  18.0 °C 58.5 °F /  14.7 °C 30.1 in /  1017.6 hPa NW 2.5 mph /  4 km/h 2.5 mph /  4 km/h 81 % 0 in /  0.0 mm open2300-1.11 W/m2
06:10 64 °F /  17.8 °C 58.5 °F /  14.7 °C 30.1 in /  1017.8 hPa NNE 4.3 mph /  6.9 km/h 4.3 mph /  6.9 km/h 82 % 0 in /  0.0 mm open2300-1.11 W/m2
07:10 64.2 °F /  17.9 °C 58.6 °F /  14.8 °C 30.1 in /  1017.9 hPa Calm   4.0 mph /  6.4 km/h 82 % 0 in /  0.0 mm open2300-1.11 W/m2
08:10 64.6 °F /  18.1 °C 59.4 °F /  15.2 °C 30.1 in /  1019.0 hPa Calm   2.9 mph /  4.7 km/h 83 % 0 in /  0.0 mm open2300-1.11 W/m2
09:10 65.8 °F /  18.8 °C 59.9 °F /  15.5 °C 30.1 in /  1019.8 hPa Calm   2.5 mph /  4 km/h 81 % 0 in /  0.0 mm open2300-1.11 W/m2
10:10 67.3 °F /  19.6 °C 61.3 °F /  16.3 °C 30.1 in /  1020.2 hPa Calm     81 % 0 in /  0.0 mm open2300-1.11 W/m2
11:10 69.3 °F /  20.7 °C 62.4 °F /  16.9 °C 30.1 in /  1020.6 hPa South 2.5 mph /  4 km/h 2.5 mph /  4 km/h 79 % 0 in /  0.0 mm open2300-1.11 W/m2
12:10 71.2 °F /  21.8 °C 63.7 °F /  17.6 °C 30.2 in /  1021.1 hPa SE 4.7 mph /  7.6 km/h 4.7 mph /  7.6 km/h 77 % 0 in /  0.0 mm open2300-1.11 W/m2
13:10 72 °F /  22.2 °C 64 °F /  17.8 °C 30.1 in /  1020.8 hPa NNE 4.0 mph /  6.4 km/h 6.1 mph /  9.8 km/h 76 % 0 in /  0.0 mm open2300-1.11 W/m2
14:10 73.6 °F /  23.1 °C 64.8 °F /  18.2 °C 30.1 in /  1020.4 hPa Calm   5.0 mph /  8 km/h 74 % 0 in /  0.0 mm open2300-1.11 W/m2
15:10 73.6 °F /  23.1 °C 64.8 °F /  18.2 °C 30.1 in /  1020.1 hPa Calm   5.0 mph /  8 km/h 74 % 0 in /  0.0 mm open2300-1.11 W/m2
16:10 73.6 °F /  23.1 °C 64.4 °F /  18.0 °C 30.1 in /  1020.0 hPa SSE 11.2 mph /  18 km/h 11.2 mph /  18 km/h 73 % 0 in /  0.0 mm open2300-1.11 W/m2
17:10 73 °F /  22.8 °C 63.9 °F /  17.7 °C 30.1 in /  1019.7 hPa Calm   3.2 mph /  5.1 km/h 73 % 0 in /  0.0 mm open2300-1.11 W/m2
18:10 70.9 °F /  21.6 °C 62.1 °F /  16.7 °C 30.1 in /  1019.5 hPa Calm     74 % 0 in /  0.0 mm open2300-1.11 W/m2
19:10 68.9 °F /  20.5 °C 61 °F /  16.1 °C 30.1 in /  1019.8 hPa Calm     76 % 0 in /  0.0 mm open2300-1.11 W/m2
20:10 67.3 °F /  19.6 °C 59.9 °F /  15.5 °C 30.1 in /  1020.4 hPa Calm     77 % 0 in /  0.0 mm open2300-1.11 W/m2
21:10 66.9 °F /  19.4 °C 59.9 °F /  15.5 °C 30.1 in /  1020.4 hPa Calm     78 % 0 in /  0.0 mm open2300-1.11 W/m2
22:10 66.9 °F /  19.4 °C 60.3 °F /  15.7 °C 30.1 in /  1020.4 hPa Calm     79 % 0 in /  0.0 mm open2300-1.11 W/m2
23:10 65.1 °F /  18.4 °C 58.1 °F /  14.5 °C 30.1 in /  1020.5 hPa Calm   2.2 mph /  3.5 km/h 78 % 0 in /  0.0 mm open2300-1.11 W/m2
Observations météo à CASSIS
WU-History script by Weather Underground - 1 mb